COOK1: Arkansas River Nr Coolidge, KS

                                SHEF ID:       COOK1     ARKANSAS R NR COOLIDGE, KS
STATION TYPE:
Regulating: Stage = 8.00, Flow = 2026

PRECIP STAGE STAGE(2) RIV-FLOW WTR-TEMP CONDUCT BAT-LOAD
in ft ft cfs F umho/cm volt
Ccp-Rev Ccp-Rev Ccp-Rev Ccp-Rev Ccp-Rev Ccp-Rev Ccp-Rev
(America/Chicago)
07/23 00:00 0.00 4.60 4.76 389 77.05 3339 12.95
07/23 01:00 0.00 4.58 4.77 384 76.46 3339 12.89
07/23 02:00 0.00 4.55 4.70 376 75.85 3319 12.89
07/23 03:00 0.00 4.54 4.75 373 75.18 3310 12.89
07/23 04:00 0.00 4.56 4.73 378 74.43 3316 12.83
07/23 05:00 0.00 4.56 4.72 378 73.58 3334 12.83
07/23 06:00 0.00 4.57 4.74 381 72.66 3366 12.77
07/23 07:00 0.00 4.59 4.76 386 71.89 3395 12.77
07/23 08:00 0.00 4.57 4.74 381 71.33 3404 12.77
07/23 09:00 0.00 4.60 4.75 389 71.13 3389 12.95
07/23 10:00 0.00 4.61 4.78 392 71.33 3377 13.42
07/23 11:00 0.00 4.61 4.79 392 71.98 3370 13.65
07/23 12:00 0.00 4.63 4.80 397 72.95 3362 13.71
07/23 13:00 0.00 4.62 4.81 394 74.16 3362 13.77
07/23 14:00 0.00 4.63 4.79 397 75.49 3361 13.77
07/23 15:00 0.00 4.65 4.81 402 76.69 3355 13.53
07/23 16:00 0.00 4.61 4.77 392 78.10 3350 13.48
07/23 17:00 0.00 4.58 4.75 384 79.03 3359 13.36
07/23 18:00 0.00 4.60 4.78 389 79.50 3359 13.18
07/23 19:00 0.00 4.58 4.76 384 79.93 3335 13.18
07/23 20:00 0.00 4.58 4.71 384 79.83 3317 13.18
07/23 21:00 0.00 4.57 4.72 381 79.47 3328 13.07
07/23 22:00 0.00 4.56 4.71 378 79.00 3350 13.00
07/23 23:00 ---- ---- ---- ---- ---- ---- ----
Data processed at Wed 24Jul2024 04:30 GMT

Parsing this webpage?

Checkout our new Data API! CWMSDataAPI (CDA)

Timeseries IDs (TSIDs)

TSIDs used from left to right in the data table
COOL.Precip-Inc.Total.1Hour.1Hour.Ccp-Rev
COOL.Stage.Inst.1Hour.0.Ccp-Rev
COOL.Stage-Alt.Inst.1Hour.0.Ccp-Rev
COOL.Flow.Inst.1Hour.0.Ccp-Rev
COOL.Temp-Water.Inst.1Hour.0.Ccp-Rev
COOL.Cond.Inst.1Hour.0.Ccp-Rev
COOL.Volt-Battery Load.Inst.1Hour.0.Ccp-Rev

                            

All information presented herein is the property of the government of the United States of America and may be revised or deleted at any time without prior notice. Dissemination of this information without the expressed written consent of the Public Affairs Office, Tulsa District U.S. Army Corps of Engineers is strictly prohibited. These data are gathered electronically and, as presented, have NOT undergone any form of quality control. These data are NOT guaranteed to be valid or correct.